KDHT

Dalhart Municipal Airport

Dalhart, Texas, USA
METAR KDHT 190253Z AUTO 24011KT 10SM CLR 03/M14 A3004 RMK AO2 SLP194 T00281144 58002
Observed Flight Rules
Jan-19 @ 02:53 UTC (51 minutes ago) Visual Flight Rules
Wind Visibility Clouds
240° at 11 knots 10 miles
  • Clear skies
Temperatures Readings
Current 3°C / 37°F
Dewpoint -14°C / 7°F
Humidity 28%
Altimeter 30.04" Hg
Pressure 1019.4 hPa
Elevation 1217
METAR KDHT 190253Z AUTO 24011KT 10SM CLR 03/M14 A3004 RMK AO2 SLP194 T00281144 58002
Observed Flight Rules
Jan-19 @ 02:53 UTC
(51 minutes ago)
VFR
Wind Visibility
240° at 11 knots 10 miles
Clouds
  • Clear skies
Temperature Dewpoint
3°C / 37°F -14°C / 7°F
Humidity Altimeter Pressure
28% 30.04" Hg 1019.4 hPa